Time;durP1;ratioP1;P1;durP2;ratioP2;P2;SDS_P1;SDS_P2;PMS_P1;PMS_P2;Temp;Humidity;BMP_temperature;BMP_pressure;BME280_temperature;BME280_humidity;BME280_pressure;Samples;Min_cycle;Max_cycle;Signal;HPM_P1;HPM_P2
2022/10/06 00:01:19;;;;;;;14.65;3.38;;;11.80;99.90;;;;;;5033561;28;20137;-64
2022/10/06 00:03:46;;;;;;;18.90;4.40;;;11.80;99.90;;;;;;5033960;28;20106;-64
2022/10/06 00:06:13;;;;;;;16.80;3.17;;;11.80;99.90;;;;;;5034028;28;20076;-68
2022/10/06 00:08:40;;;;;;;20.27;3.78;;;11.80;99.90;;;;;;5016093;28;20088;-64
2022/10/06 00:11:06;;;;;;;17.13;2.83;;;11.70;99.90;;;;;;5034102;28;20041;-62
2022/10/06 00:13:33;;;;;;;12.40;2.67;;;11.80;99.90;;;;;;5033122;28;20052;-64
2022/10/06 00:16:00;;;;;;;14.15;2.78;;;11.70;99.90;;;;;;5016538;28;20519;-68
2022/10/06 00:18:27;;;;;;;17.13;3.05;;;11.70;99.90;;;;;;5034005;28;20045;-68
2022/10/06 00:20:55;;;;;;;12.73;2.42;;;11.70;99.90;;;;;;5031332;28;20033;-67
2022/10/06 00:23:21;;;;;;;15.82;3.35;;;11.70;99.90;;;;;;5033429;28;20091;-69
2022/10/06 00:25:48;;;;;;;12.60;2.67;;;11.60;99.90;;;;;;5033220;28;20046;-67
2022/10/06 00:28:15;;;;;;;17.92;2.97;;;11.60;99.90;;;;;;5033931;28;20095;-62
2022/10/06 00:30:42;;;;;;;15.38;2.72;;;11.60;99.90;;;;;;5015634;28;20041;-64
2022/10/06 00:33:09;;;;;;;15.35;3.08;;;11.60;99.90;;;;;;5015779;28;20575;-66
2022/10/06 00:35:36;;;;;;;16.33;3.05;;;11.60;99.90;;;;;;5033746;28;20064;-62
2022/10/06 00:38:02;;;;;;;13.13;2.58;;;11.60;99.90;;;;;;5015908;28;20535;-65
2022/10/06 00:40:29;;;;;;;18.85;3.90;;;11.50;99.90;;;;;;5015377;28;20107;-63
2022/10/06 00:42:56;;;;;;;16.92;2.85;;;11.50;99.90;;;;;;5016121;28;20144;-69
2022/10/06 00:45:23;;;;;;;12.93;2.60;;;11.50;99.90;;;;;;5033817;28;20038;-66
2022/10/06 00:47:49;;;;;;;13.90;3.10;;;11.50;99.90;;;;;;5033394;28;20073;-65
2022/10/06 00:50:16;;;;;;;14.77;3.00;;;11.50;99.90;;;;;;5015253;28;20049;-65
2022/10/06 00:52:43;;;;;;;13.07;3.03;;;11.40;99.90;;;;;;5033262;28;20034;-64
2022/10/06 00:55:09;;;;;;;16.35;2.90;;;11.40;99.90;;;;;;5015746;28;20430;-66
2022/10/06 00:57:36;;;;;;;17.58;3.03;;;11.40;99.90;;;;;;5033811;28;20087;-65
2022/10/06 01:00:03;;;;;;;11.10;2.90;;;11.40;99.90;;;;;;5032908;28;20471;-68
2022/10/06 01:02:30;;;;;;;9.23;2.20;;;11.30;99.90;;;;;;5033570;28;20112;-66
2022/10/06 01:04:59;;;;;;;12.63;2.75;;;11.30;99.90;;;;;;5037366;28;20052;-64
2022/10/06 01:07:26;;;;;;;11.63;2.50;;;11.30;99.90;;;;;;5037513;28;20038;-67
2022/10/06 01:09:52;;;;;;;17.23;2.40;;;11.30;99.90;;;;;;5030058;28;20069;-66
2022/10/06 01:12:20;;;;;;;13.90;2.60;;;11.30;99.90;;;;;;5019764;28;20053;-64
2022/10/06 01:14:46;;;;;;;11.90;2.72;;;11.30;99.90;;;;;;5019172;28;20388;-62
2022/10/06 01:17:13;;;;;;;13.73;2.58;;;11.30;99.90;;;;;;5019139;28;20499;-65
2022/10/06 01:19:40;;;;;;;10.57;2.20;;;11.30;99.90;;;;;;5018717;28;20041;-64
2022/10/06 01:22:07;;;;;;;15.10;3.15;;;11.20;99.90;;;;;;5036313;28;20041;-65
2022/10/06 01:24:34;;;;;;;11.30;2.40;;;11.20;99.90;;;;;;5037177;28;20053;-64
2022/10/06 01:27:00;;;;;;;11.43;2.22;;;11.20;99.90;;;;;;5020310;28;20046;-61
2022/10/06 01:29:27;;;;;;;13.07;2.50;;;11.20;99.90;;;;;;5020113;28;20053;-62
2022/10/06 01:31:54;;;;;;;14.32;3.05;;;11.10;99.90;;;;;;5019900;28;20091;-66
2022/10/06 01:34:21;;;;;;;11.30;2.30;;;11.10;99.90;;;;;;5020335;28;20095;-62
2022/10/06 01:36:48;;;;;;;14.77;2.53;;;11.10;99.90;;;;;;5019348;28;20076;-63
2022/10/06 01:39:15;;;;;;;13.07;2.47;;;11.10;99.90;;;;;;5019266;28;20065;-68
2022/10/06 01:41:44;;;;;;;14.65;2.83;;;11.10;99.90;;;;;;5018216;28;20042;-64
2022/10/06 01:44:10;;;;;;;11.93;2.65;;;11.00;99.90;;;;;;5018747;28;20046;-65
2022/10/06 01:46:37;;;;;;;10.90;2.58;;;11.00;99.90;;;;;;5018638;28;20444;-70
2022/10/06 01:49:04;;;;;;;16.08;2.92;;;11.00;99.90;;;;;;5036657;28;20049;-66
2022/10/06 01:51:31;;;;;;;9.52;2.10;;;11.00;99.90;;;;;;5035800;28;20045;-68
2022/10/06 01:53:57;;;;;;;16.38;3.55;;;11.00;99.90;;;;;;5034374;28;20049;-67
2022/10/06 01:56:24;;;;;;;14.27;2.90;;;11.00;99.90;;;;;;5036618;28;20107;-66
2022/10/06 01:58:51;;;;;;;14.38;2.60;;;10.90;99.90;;;;;;5036098;28;20049;-63
2022/10/06 02:01:18;;;;;;;9.90;2.38;;;10.90;99.90;;;;;;5034433;28;20042;-66
2022/10/06 02:03:45;;;;;;;13.13;2.30;;;10.90;99.90;;;;;;5036350;28;20053;-67
2022/10/06 02:06:11;;;;;;;12.95;2.20;;;10.90;99.90;;;;;;5036700;28;20042;-62
2022/10/06 02:08:41;;;;;;;12.57;2.30;;;10.80;99.90;;;;;;5004200;28;20170;-66
2022/10/06 02:11:11;;;;;;;12.55;2.50;;;10.80;99.90;;;;;;5014842;28;20050;-63
2022/10/06 02:13:40;;;;;;;11.93;2.38;;;10.80;99.90;;;;;;5014768;28;20042;-65
2022/10/06 02:16:07;;;;;;;10.55;2.33;;;10.80;99.90;;;;;;5015112;28;20350;-64
2022/10/06 02:18:34;;;;;;;15.52;2.47;;;10.70;99.90;;;;;;5031581;28;20129;-65
2022/10/06 02:21:01;;;;;;;13.77;2.42;;;10.70;99.90;;;;;;5034726;28;20052;-62
2022/10/06 02:23:27;;;;;;;16.70;2.47;;;10.70;99.90;;;;;;5035963;28;20048;-62
2022/10/06 02:25:55;;;;;;;11.60;2.53;;;10.70;99.90;;;;;;5014782;28;20041;-67
2022/10/06 02:28:22;;;;;;;16.90;2.45;;;10.70;99.90;;;;;;5029536;28;20065;-62
2022/10/06 02:30:48;;;;;;;13.68;2.47;;;10.70;99.90;;;;;;5014172;28;20042;-69
2022/10/06 02:33:16;;;;;;;12.38;2.53;;;10.70;99.90;;;;;;5014387;28;20370;-61
2022/10/06 02:35:43;;;;;;;11.35;2.20;;;10.70;99.90;;;;;;5016228;28;20048;-66
2022/10/06 02:38:11;;;;;;;14.70;2.25;;;10.70;99.90;;;;;;4998721;28;20042;-68
2022/10/06 02:40:38;;;;;;;10.70;2.03;;;10.60;99.90;;;;;;5026714;28;20496;-66
2022/10/06 02:43:05;;;;;;;13.70;2.33;;;10.60;99.90;;;;;;5033383;28;20034;-64
2022/10/06 02:45:31;;;;;;;12.63;2.25;;;10.60;99.90;;;;;;5034787;28;20484;-63
2022/10/06 02:47:58;;;;;;;10.35;2.30;;;10.60;99.90;;;;;;5035412;28;20068;-63
2022/10/06 02:50:25;;;;;;;13.50;2.50;;;10.50;99.90;;;;;;5017396;28;20072;-64
2022/10/06 02:52:52;;;;;;;12.50;2.20;;;10.50;99.90;;;;;;5035615;28;20440;-68
2022/10/06 02:55:18;;;;;;;13.77;2.13;;;10.50;99.90;;;;;;5033943;28;20037;-65
2022/10/06 02:57:45;;;;;;;14.00;1.98;;;10.50;99.90;;;;;;5035631;28;20049;-64
2022/10/06 03:00:13;;;;;;;15.43;2.47;;;10.50;99.90;;;;;;5016745;28;20049;-65
2022/10/06 03:02:40;;;;;;;15.10;2.35;;;10.40;99.90;;;;;;5033019;28;20497;-65
2022/10/06 03:05:08;;;;;;;12.88;2.40;;;10.40;99.90;;;;;;5017107;28;20056;-67
2022/10/06 03:07:35;;;;;;;14.10;2.35;;;10.50;99.90;;;;;;5034870;28;20037;-67
2022/10/06 03:10:02;;;;;;;14.82;2.50;;;10.40;99.90;;;;;;5016685;28;20052;-66
2022/10/06 03:12:29;;;;;;;9.18;2.20;;;10.40;99.90;;;;;;5032365;28;20144;-67
2022/10/06 03:14:56;;;;;;;9.15;2.28;;;10.40;99.90;;;;;;5017528;28;20049;-65
2022/10/06 03:17:23;;;;;;;9.88;1.85;;;10.40;99.90;;;;;;5015531;28;20136;-64
2022/10/06 03:19:55;;;;;;;13.05;2.42;;;10.30;99.90;;;;;;5016978;28;20045;-67
2022/10/06 03:22:23;;;;;;;14.07;2.45;;;10.30;99.90;;;;;;5016934;28;20052;-65
2022/10/06 03:24:53;;;;;;;11.32;2.10;;;10.30;99.90;;;;;;5015597;28;20068;-65
2022/10/06 03:27:20;;;;;;;12.93;2.03;;;10.30;99.90;;;;;;5016334;28;20046;-68
2022/10/06 03:29:48;;;;;;;12.02;2.38;;;10.20;99.90;;;;;;5015796;28;20124;-65
2022/10/06 03:32:14;;;;;;;10.43;2.17;;;10.20;99.90;;;;;;5017350;28;20055;-68
2022/10/06 03:34:42;;;;;;;11.35;2.25;;;10.20;99.90;;;;;;5015692;28;20144;-66
2022/10/06 03:37:12;;;;;;;8.25;2.20;;;10.20;99.90;;;;;;5016664;28;20050;-64
2022/10/06 03:39:39;;;;;;;15.55;2.28;;;10.20;99.90;;;;;;5033976;28;20045;-66
2022/10/06 03:42:05;;;;;;;12.18;2.20;;;10.20;99.90;;;;;;5033612;28;20041;-63
2022/10/06 03:44:33;;;;;;;13.52;2.45;;;10.20;99.90;;;;;;5016500;28;20038;-64
2022/10/06 03:47:01;;;;;;;10.30;2.33;;;10.20;99.90;;;;;;5016492;28;20053;-63
2022/10/06 03:49:29;;;;;;;12.65;2.17;;;10.10;99.90;;;;;;5016178;28;20045;-66
2022/10/06 03:51:56;;;;;;;8.52;2.20;;;10.10;99.90;;;;;;5032510;28;20176;-65
2022/10/06 03:54:26;;;;;;;14.35;2.38;;;10.10;99.90;;;;;;5015768;28;20504;-63
2022/10/06 03:56:54;;;;;;;13.93;2.20;;;10.00;99.90;;;;;;5016019;28;20045;-67
2022/10/06 03:59:21;;;;;;;11.07;1.92;;;10.00;99.90;;;;;;5034440;28;20065;-67
2022/10/06 04:01:49;;;;;;;8.20;2.20;;;10.00;99.90;;;;;;5014901;28;20477;-64
2022/10/06 04:04:24;;;;;;;11.43;2.13;;;10.00;99.90;;;;;;5016321;28;20435;-64
2022/10/06 04:06:56;;;;;;;12.75;2.40;;;10.00;99.90;;;;;;5014668;28;20088;-67
2022/10/06 04:09:23;;;;;;;10.85;2.58;;;9.90;99.90;;;;;;5033458;28;20412;-67
2022/10/06 04:11:51;;;;;;;11.65;1.92;;;9.90;99.90;;;;;;5014610;28;20042;-66
2022/10/06 04:14:19;;;;;;;12.20;2.50;;;9.90;99.90;;;;;;5015914;28;20416;-62
2022/10/06 04:16:45;;;;;;;13.57;2.35;;;9.90;99.90;;;;;;5014306;28;20103;-67
2022/10/06 04:19:14;;;;;;;16.30;2.55;;;9.90;99.90;;;;;;5030663;28;20444;-65
2022/10/06 04:21:44;;;;;;;13.10;2.33;;;9.80;99.90;;;;;;5016138;28;20053;-66
2022/10/06 04:24:17;;;;;;;11.52;2.40;;;9.90;99.90;;;;;;5014230;28;20400;-62
2022/10/06 04:26:47;;;;;;;13.02;2.45;;;9.80;99.90;;;;;;5014538;28;20073;-64
2022/10/06 04:29:15;;;;;;;15.70;2.30;;;9.80;99.90;;;;;;5016087;28;20091;-64
2022/10/06 04:31:44;;;;;;;13.45;2.00;;;9.80;99.90;;;;;;5014015;28;20037;-67
2022/10/06 04:34:17;;;;;;;12.18;2.38;;;9.80;99.90;;;;;;5012499;28;20554;-65
2022/10/06 04:36:45;;;;;;;13.60;2.22;;;9.80;99.90;;;;;;5032037;28;20050;-66
2022/10/06 04:39:14;;;;;;;18.98;2.90;;;9.80;99.90;;;;;;5014998;28;20044;-63
2022/10/06 04:41:45;;;;;;;11.68;2.30;;;9.80;99.90;;;;;;5014913;28;20069;-62
2022/10/06 04:44:18;;;;;;;14.50;2.78;;;9.70;99.90;;;;;;5015764;28;20409;-66
2022/10/06 04:46:45;;;;;;;11.98;2.63;;;9.80;99.90;;;;;;5000710;28;20092;-65
2022/10/06 04:49:12;;;;;;;13.85;2.72;;;9.70;99.90;;;;;;5012401;28;20128;-64
2022/10/06 04:51:46;;;;;;;11.95;1.85;;;9.70;99.90;;;;;;5021354;28;20041;-65
2022/10/06 04:54:13;;;;;;;13.45;2.65;;;9.70;99.90;;;;;;5032724;28;20041;-63
2022/10/06 04:56:39;;;;;;;15.95;2.10;;;9.70;99.90;;;;;;5033612;28;20061;-65
2022/10/06 04:59:06;;;;;;;18.60;2.95;;;9.70;99.90;;;;;;5014153;28;20046;-63
2022/10/06 05:01:35;;;;;;;17.73;2.30;;;9.70;99.90;;;;;;4997859;28;20041;-64
2022/10/06 05:04:07;;;;;;;16.45;2.42;;;9.70;99.90;;;;;;5012900;28;20357;-66
2022/10/06 05:06:34;;;;;;;15.05;2.53;;;9.70;99.90;;;;;;5011454;28;20050;-63
2022/10/06 05:09:01;;;;;;;9.85;2.35;;;9.70;99.90;;;;;;5012414;28;20050;-63
2022/10/06 05:11:30;;;;;;;16.85;2.47;;;9.70;99.90;;;;;;5013965;28;20117;-65
2022/10/06 05:13:57;;;;;;;14.00;2.58;;;9.70;99.90;;;;;;5015481;28;20092;-65
2022/10/06 05:16:26;;;;;;;36.75;15.00;;;9.60;99.90;;;;;;5014935;28;20041;-61
2022/10/06 05:18:53;;;;;;;12.10;2.95;;;9.60;99.90;;;;;;4991629;28;20041;-64
2022/10/06 05:21:20;;;;;;;11.45;2.22;;;9.60;99.90;;;;;;5030068;28;20029;-65
2022/10/06 05:23:47;;;;;;;12.40;3.17;;;9.60;99.90;;;;;;5014379;28;20046;-63
2022/10/06 05:26:14;;;;;;;14.80;2.20;;;9.60;99.90;;;;;;5030305;28;20079;-63
2022/10/06 05:28:41;;;;;;;16.23;2.85;;;9.60;99.90;;;;;;5014622;28;20080;-65
2022/10/06 05:31:08;;;;;;;12.35;2.08;;;9.60;99.90;;;;;;5013924;28;20052;-64
2022/10/06 05:33:34;;;;;;;12.68;2.65;;;9.60;99.90;;;;;;5013803;28;20049;-61
2022/10/06 05:36:02;;;;;;;14.70;3.15;;;9.60;99.90;;;;;;5013769;28;20145;-64
2022/10/06 05:38:29;;;;;;;12.68;2.50;;;9.60;99.90;;;;;;5014068;28;20100;-66
2022/10/06 05:40:57;;;;;;;14.50;2.63;;;9.50;99.90;;;;;;5014278;28;20484;-66
2022/10/06 05:43:23;;;;;;;13.98;2.40;;;9.50;99.90;;;;;;5013094;28;20492;-60
2022/10/06 05:45:51;;;;;;;16.27;2.80;;;9.50;99.90;;;;;;5028633;28;20048;-65
2022/10/06 05:48:18;;;;;;;11.60;2.53;;;9.50;99.90;;;;;;5008316;28;20107;-62
2022/10/06 05:50:44;;;;;;;12.23;2.40;;;9.50;99.90;;;;;;5016252;28;20049;-68
2022/10/06 05:53:11;;;;;;;11.73;2.47;;;9.50;99.90;;;;;;5017649;28;20077;-62
2022/10/06 05:55:38;;;;;;;17.77;2.50;;;9.50;99.90;;;;;;5018882;28;20103;-61
2022/10/06 05:58:05;;;;;;;13.23;2.97;;;9.50;99.90;;;;;;5017807;28;20412;-62
2022/10/06 06:00:32;;;;;;;12.40;2.63;;;9.50;99.90;;;;;;5017825;28;20132;-65
2022/10/06 06:02:59;;;;;;;19.73;2.97;;;9.50;99.90;;;;;;5032805;28;20048;-64
2022/10/06 06:05:26;;;;;;;13.20;2.90;;;9.40;99.90;;;;;;5033040;28;20072;-62
2022/10/06 06:07:53;;;;;;;18.40;3.00;;;9.40;99.90;;;;;;5016328;28;20037;-62
2022/10/06 06:10:19;;;;;;;11.00;2.05;;;9.40;99.90;;;;;;5016445;28;20068;-68
2022/10/06 06:12:46;;;;;;;16.40;2.50;;;9.50;99.90;;;;;;5017454;28;20123;-61
2022/10/06 06:18:17;;;;;;;16.10;2.75;;;9.40;99.90;;;;;;5030826;28;20073;-66
2022/10/06 06:20:44;;;;;;;14.75;3.17;;;9.40;99.90;;;;;;5016597;28;20042;-65
2022/10/06 06:23:11;;;;;;;13.77;2.70;;;9.40;99.90;;;;;;5034042;28;20069;-62
2022/10/06 06:25:37;;;;;;;18.42;2.83;;;9.40;99.90;;;;;;5014424;28;20050;-63
2022/10/06 06:28:05;;;;;;;15.20;2.63;;;9.40;99.90;;;;;;5034407;28;20052;-65
2022/10/06 06:30:32;;;;;;;13.23;2.85;;;9.40;99.90;;;;;;5017917;28;20045;-68
2022/10/06 06:32:59;;;;;;;15.05;2.42;;;9.40;99.90;;;;;;5017273;28;20108;-65
2022/10/06 06:35:27;;;;;;;13.68;3.05;;;9.40;99.90;;;;;;5016584;28;20125;-62
2022/10/06 06:37:54;;;;;;;7.97;2.40;;;9.40;99.90;;;;;;5014535;28;20133;-68
2022/10/06 06:40:21;;;;;;;15.07;2.80;;;9.40;99.90;;;;;;5016344;28;20052;-64
2022/10/06 06:42:48;;;;;;;15.35;2.80;;;9.50;99.90;;;;;;5033985;28;20116;-64
2022/10/06 06:45:37;;;;;;;13.65;2.72;;;9.50;99.90;;;;;;5012202;28;20045;-62
2022/10/06 06:48:12;;;;;;;12.85;2.40;;;9.50;99.90;;;;;;5033062;28;20065;-66
2022/10/06 06:50:39;;;;;;;12.57;2.30;;;9.50;99.90;;;;;;5016149;28;20455;-63
2022/10/06 06:53:06;;;;;;;13.80;2.63;;;9.60;99.90;;;;;;5031482;28;20083;-64
2022/10/06 06:55:35;;;;;;;15.35;2.92;;;9.60;99.90;;;;;;5016728;28;20098;-61
2022/10/06 06:58:04;;;;;;;13.60;2.42;;;9.60;99.90;;;;;;5031651;28;20071;-63
2022/10/06 07:00:31;;;;;;;21.52;2.88;;;9.60;99.90;;;;;;5013043;28;20492;-62
2022/10/06 07:03:02;;;;;;;18.02;2.60;;;9.70;99.90;;;;;;5034350;28;20037;-65
2022/10/06 07:05:31;;;;;;;14.70;3.22;;;9.70;99.90;;;;;;5017003;28;20091;-66
2022/10/06 07:07:58;;;;;;;17.27;2.72;;;9.70;99.90;;;;;;5053093;28;20123;-65
2022/10/06 07:10:26;;;;;;;15.50;3.05;;;9.80;99.90;;;;;;5029835;28;20132;-61
2022/10/06 07:12:53;;;;;;;17.42;3.10;;;9.80;99.90;;;;;;5033663;28;20140;-65
2022/10/06 07:26:27;;;;;;;12.80;2.50;;;10.10;99.90;;;;;;5026005;28;20099;-63
2022/10/06 07:28:58;;;;;;;17.00;2.60;;;10.10;99.90;;;;;;5029639;28;20041;-63
2022/10/06 07:31:32;;;;;;;13.27;2.50;;;10.20;99.90;;;;;;5035285;28;20128;-65
2022/10/06 07:33:59;;;;;;;14.70;2.60;;;10.30;99.90;;;;;;5025938;28;20111;-66
2022/10/06 07:36:26;;;;;;;16.30;2.78;;;10.30;99.90;;;;;;5034438;28;20065;-61
2022/10/06 07:38:54;;;;;;;17.75;2.72;;;10.40;99.90;;;;;;5047035;28;20547;-62
2022/10/06 07:41:21;;;;;;;14.05;2.90;;;10.50;99.90;;;;;;5029151;28;20042;-66
2022/10/06 07:43:52;;;;;;;13.93;2.78;;;10.50;99.90;;;;;;5023669;28;20041;-64
2022/10/06 07:46:20;;;;;;;21.48;2.65;;;10.60;99.90;;;;;;5027715;28;20120;-64
2022/10/06 07:48:55;;;;;;;13.57;2.80;;;10.70;99.90;;;;;;5029131;28;20615;-60
2022/10/06 07:51:23;;;;;;;14.75;2.97;;;10.70;99.90;;;;;;5016127;28;20107;-64
2022/10/06 07:53:52;;;;;;;15.02;2.58;;;10.80;99.90;;;;;;5016059;28;20049;-61
2022/10/06 07:56:57;;;;;;;15.90;2.83;;;10.80;99.90;;;;;;4992411;28;20145;-62
2022/10/06 07:59:24;;;;;;;18.65;2.97;;;10.90;99.90;;;;;;4985788;28;20640;-67
2022/10/06 08:01:51;;;;;;;15.20;2.63;;;11.00;99.90;;;;;;5012999;28;20049;-62
2022/10/06 08:04:18;;;;;;;12.55;2.58;;;11.00;99.90;;;;;;5052632;28;20098;-66
2022/10/06 08:06:46;;;;;;;15.88;2.75;;;11.10;99.90;;;;;;5046697;28;20041;-61
2022/10/06 08:09:13;;;;;;;13.23;2.72;;;11.10;99.90;;;;;;5015952;28;20072;-60
2022/10/06 08:11:39;;;;;;;14.95;2.70;;;11.20;99.90;;;;;;5033342;28;20042;-69
2022/10/06 08:14:06;;;;;;;19.20;2.95;;;11.20;99.90;;;;;;5033302;28;20068;-65
2022/10/06 08:16:33;;;;;;;16.60;2.70;;;11.30;99.90;;;;;;5033525;28;20049;-64
2022/10/06 08:19:00;;;;;;;12.02;2.63;;;11.40;99.90;;;;;;5033594;28;20097;-63
2022/10/06 08:21:28;;;;;;;17.05;2.88;;;11.40;99.90;;;;;;5033068;28;20111;-67
2022/10/06 08:23:55;;;;;;;17.08;2.90;;;11.40;99.90;;;;;;5033098;28;20439;-64
2022/10/06 08:26:22;;;;;;;20.48;3.75;;;11.50;99.90;;;;;;5045378;28;20037;-64
2022/10/06 08:28:48;;;;;;;17.08;3.05;;;11.50;99.90;;;;;;5033065;28;20120;-64
2022/10/06 08:31:16;;;;;;;19.05;2.70;;;11.60;99.90;;;;;;5033420;28;20115;-62
2022/10/06 08:33:43;;;;;;;11.63;2.67;;;11.60;99.90;;;;;;5015183;28;20049;-62
2022/10/06 08:36:10;;;;;;;12.18;2.55;;;11.70;99.90;;;;;;5033249;28;20116;-66
2022/10/06 08:38:36;;;;;;;17.00;3.28;;;11.80;99.90;;;;;;5033095;28;20128;-62
2022/10/06 08:41:03;;;;;;;12.52;3.30;;;11.80;99.90;;;;;;5033152;28;20051;-63
2022/10/06 08:43:30;;;;;;;13.20;2.80;;;11.90;99.90;;;;;;5033072;28;20528;-65
2022/10/06 08:45:58;;;;;;;14.80;2.83;;;11.90;99.90;;;;;;5042669;28;20041;-69
2022/10/06 08:48:28;;;;;;;16.85;3.20;;;12.00;99.90;;;;;;5052176;28;20095;-66
2022/10/06 08:50:56;;;;;;;13.25;2.65;;;12.10;99.90;;;;;;5048273;28;20045;-64
2022/10/06 08:53:22;;;;;;;13.73;2.67;;;12.10;99.90;;;;;;5032959;28;20056;-64
2022/10/06 08:55:50;;;;;;;13.85;2.55;;;12.20;99.90;;;;;;5033313;28;20077;-63
2022/10/06 08:58:16;;;;;;;18.38;3.17;;;12.20;99.90;;;;;;5043151;28;20128;-61
2022/10/06 09:00:43;;;;;;;15.60;2.58;;;12.30;99.90;;;;;;5052027;28;20048;-64
2022/10/06 09:03:10;;;;;;;15.00;3.50;;;12.30;99.90;;;;;;5052105;28;20124;-61
2022/10/06 09:05:36;;;;;;;18.98;3.35;;;12.40;99.90;;;;;;5051859;28;20186;-63
2022/10/06 09:08:03;;;;;;;15.18;2.53;;;12.40;99.90;;;;;;5052058;28;20044;-63
2022/10/06 09:10:30;;;;;;;18.90;3.20;;;12.50;99.90;;;;;;5046557;28;20045;-68
2022/10/06 09:12:57;;;;;;;11.85;2.80;;;12.50;99.90;;;;;;5048532;28;20073;-61
2022/10/06 09:15:23;;;;;;;18.90;3.28;;;12.60;99.90;;;;;;5045637;28;20432;-66
2022/10/06 09:17:53;;;;;;;16.92;3.33;;;12.70;99.90;;;;;;5049561;28;20444;-66
2022/10/06 09:20:21;;;;;;;14.00;2.67;;;12.70;99.90;;;;;;5032607;28;20504;-64
2022/10/06 09:22:48;;;;;;;29.13;3.22;;;12.80;99.90;;;;;;5032587;28;20505;-64
2022/10/06 09:25:14;;;;;;;21.25;2.97;;;12.80;99.90;;;;;;5035822;28;20091;-63
2022/10/06 09:27:41;;;;;;;19.25;3.58;;;12.90;99.90;;;;;;5036724;28;20548;-60
2022/10/06 09:30:08;;;;;;;17.00;3.33;;;13.00;99.90;;;;;;5035141;28;20045;-66
2022/10/06 09:32:35;;;;;;;16.13;3.60;;;13.10;99.90;;;;;;5037782;28;20084;-62
2022/10/06 09:35:03;;;;;;;23.58;3.85;;;13.10;99.90;;;;;;5046097;28;20037;-64
2022/10/06 09:37:30;;;;;;;19.45;3.38;;;13.20;99.90;;;;;;5036188;28;20068;-64
2022/10/06 09:39:56;;;;;;;21.55;3.25;;;13.30;99.90;;;;;;5044429;28;20043;-66
2022/10/06 09:42:24;;;;;;;16.55;3.40;;;13.30;99.90;;;;;;5022242;28;20378;-64
2022/10/06 09:44:51;;;;;;;19.20;3.88;;;13.40;99.90;;;;;;5035739;28;20108;-66
2022/10/06 09:47:17;;;;;;;17.08;3.22;;;13.40;99.90;;;;;;5036070;28;20038;-67
2022/10/06 09:49:45;;;;;;;19.70;3.85;;;13.50;99.90;;;;;;5036210;28;20533;-62
2022/10/06 09:52:14;;;;;;;22.63;4.00;;;13.60;99.90;;;;;;5035677;28;20125;-63
2022/10/06 09:54:42;;;;;;;20.00;3.35;;;13.60;99.90;;;;;;5049697;28;20037;-60
2022/10/06 09:57:08;;;;;;;18.92;3.63;;;13.70;99.90;;;;;;5041126;28;20107;-64
2022/10/06 09:59:35;;;;;;;18.95;2.92;;;13.70;99.90;;;;;;5040039;28;20562;-64
2022/10/06 10:02:06;;;;;;;16.27;3.35;;;13.80;99.90;;;;;;5036382;28;20041;-63
2022/10/06 10:04:33;;;;;;;17.27;3.28;;;13.80;99.90;;;;;;5035874;28;20088;-63
2022/10/06 10:06:59;;;;;;;15.43;3.00;;;13.90;99.90;;;;;;5018393;28;20572;-64
2022/10/06 10:09:26;;;;;;;15.05;3.30;;;14.00;99.90;;;;;;5035219;28;20068;-68
2022/10/06 10:14:38;;;;;;;18.55;3.72;;;14.10;99.90;;;;;;5044292;28;20057;-61
2022/10/06 10:17:05;;;;;;;15.60;3.17;;;14.20;99.90;;;;;;5034811;28;20083;-64
2022/10/06 10:19:32;;;;;;;18.05;3.75;;;14.20;99.90;;;;;;5035162;28;20049;-65
2022/10/06 10:21:59;;;;;;;20.40;3.38;;;14.20;99.90;;;;;;5035038;28;20103;-65
2022/10/06 10:24:25;;;;;;;16.15;3.00;;;14.30;99.90;;;;;;5030958;28;20033;-63
2022/10/06 10:26:53;;;;;;;19.45;3.85;;;14.40;99.90;;;;;;5042873;28;20037;-65
2022/10/06 10:29:20;;;;;;;17.10;3.42;;;14.40;99.90;;;;;;5054240;28;20055;-61
2022/10/06 10:31:49;;;;;;;17.75;3.15;;;14.50;99.90;;;;;;5045545;28;20049;-63
2022/10/06 10:34:16;;;;;;;12.68;3.15;;;14.50;99.90;;;;;;5036500;28;20125;-62
2022/10/06 10:36:50;;;;;;;20.23;4.15;;;14.60;99.90;;;;;;5029322;28;20125;-62
2022/10/06 10:39:17;;;;;;;15.57;3.35;;;14.70;99.90;;;;;;5035706;28;20490;-64
2022/10/06 10:41:43;;;;;;;21.40;3.42;;;14.70;99.90;;;;;;5034912;28;20099;-66
2022/10/06 10:44:11;;;;;;;17.73;3.60;;;14.70;99.90;;;;;;5016615;28;20495;-65
2022/10/06 10:46:38;;;;;;;16.77;3.53;;;14.70;99.90;;;;;;5034233;28;20041;-63
2022/10/06 10:49:04;;;;;;;32.80;4.40;;;14.80;99.90;;;;;;5049558;28;20037;-63
2022/10/06 10:51:31;;;;;;;19.88;3.92;;;14.90;99.90;;;;;;5054091;28;20073;-65
2022/10/06 10:53:59;;;;;;;19.80;4.20;;;14.90;99.90;;;;;;5041765;28;20088;-63
2022/10/06 10:56:25;;;;;;;18.73;3.63;;;14.90;99.90;;;;;;5034102;28;20056;-64
2022/10/06 10:58:52;;;;;;;21.38;3.78;;;15.00;99.90;;;;;;5034720;28;20049;-62
2022/10/06 11:01:19;;;;;;;66.45;6.07;;;15.00;99.70;;;;;;5034471;28;20045;-66
2022/10/06 11:03:55;;;;;;;24.90;4.43;;;15.10;99.90;;;;;;5044250;28;20051;-69
2022/10/06 11:06:22;;;;;;;72.07;6.97;;;15.10;99.70;;;;;;5034507;28;20400;-68
2022/10/06 11:08:48;;;;;;;16.55;3.85;;;15.20;99.20;;;;;;5043238;28;20103;-62
2022/10/06 11:11:15;;;;;;;20.92;4.03;;;15.20;99.20;;;;;;5051963;28;20068;-66
2022/10/06 11:13:42;;;;;;;29.13;4.07;;;15.20;99.20;;;;;;5048524;28;20045;-66
2022/10/06 11:16:10;;;;;;;47.50;5.20;;;15.20;99.40;;;;;;5049955;28;20508;-62
2022/10/06 11:18:37;;;;;;;78.38;6.20;;;15.30;98.70;;;;;;5034318;28;20519;-62
2022/10/06 11:21:04;;;;;;;11.50;3.22;;;15.40;99.00;;;;;;5048316;28;20124;-64
2022/10/06 11:23:31;;;;;;;76.40;6.15;;;15.40;98.30;;;;;;5051172;28;20454;-63
2022/10/06 11:25:58;;;;;;;14.88;3.28;;;15.40;98.50;;;;;;5034075;28;20044;-62
2022/10/06 11:28:25;;;;;;;25.50;4.15;;;15.40;98.30;;;;;;5034208;28;20038;-64
2022/10/06 11:30:51;;;;;;;39.60;4.30;;;15.50;98.40;;;;;;5034192;28;20051;-66
2022/10/06 11:33:18;;;;;;;32.20;4.10;;;15.50;98.30;;;;;;5033073;28;20033;-65
2022/10/06 11:35:45;;;;;;;43.92;4.95;;;15.60;98.00;;;;;;5040874;28;20092;-68
2022/10/06 11:38:12;;;;;;;17.77;3.42;;;15.60;98.10;;;;;;5044889;28;20056;-63
2022/10/06 11:40:38;;;;;;;55.22;5.18;;;15.70;97.90;;;;;;5033917;28;20400;-63
2022/10/06 11:43:05;;;;;;;46.00;4.57;;;15.60;98.10;;;;;;5028084;28;20041;-62
2022/10/06 11:45:34;;;;;;;24.42;4.32;;;15.70;98.20;;;;;;5053642;28;20037;-70
2022/10/06 11:48:00;;;;;;;31.70;4.63;;;15.80;97.80;;;;;;5028113;28;20046;-64
2022/10/06 11:50:27;;;;;;;88.68;5.68;;;15.80;98.00;;;;;;5046774;28;20068;-66
2022/10/06 11:52:54;;;;;;;27.42;4.05;;;15.80;97.90;;;;;;5040475;28;20049;-68
2022/10/06 11:55:22;;;;;;;49.47;5.07;;;15.90;97.50;;;;;;5039111;28;20459;-65
2022/10/06 11:57:49;;;;;;;34.58;5.20;;;15.90;97.70;;;;;;5046876;28;20049;-65
2022/10/06 12:00:16;;;;;;;27.20;3.85;;;15.90;97.60;;;;;;5046105;28;20041;-65
2022/10/06 12:02:43;;;;;;;14.02;3.47;;;16.00;97.30;;;;;;5046674;28;20041;-62
2022/10/06 12:05:10;;;;;;;14.98;3.97;;;16.10;97.50;;;;;;5032672;28;20124;-60
2022/10/06 12:07:56;;;;;;;17.60;3.00;;;16.10;97.50;;;;;;5033702;28;20047;-66
2022/10/06 12:10:23;;;;;;;17.92;3.40;;;16.20;97.20;;;;;;5045413;28;20128;-61
2022/10/06 12:12:52;;;;;;;17.48;3.47;;;16.30;97.00;;;;;;5034959;28;20748;-63
2022/10/06 12:15:32;;;;;;;17.23;3.35;;;16.30;97.00;;;;;;5035358;28;20049;-64
2022/10/06 12:18:18;;;;;;;14.07;2.92;;;16.40;96.60;;;;;;5024812;28;20045;-65
2022/10/06 12:20:45;;;;;;;24.90;3.75;;;16.50;96.50;;;;;;5041939;28;20103;-65
2022/10/06 12:23:12;;;;;;;14.70;3.15;;;16.60;96.60;;;;;;5039084;28;20128;-64
2022/10/06 12:25:39;;;;;;;19.10;3.53;;;16.70;96.70;;;;;;5037708;28;20130;-65
2022/10/06 12:28:08;;;;;;;19.13;3.45;;;16.80;96.50;;;;;;5045128;28;20120;-68
2022/10/06 12:30:35;;;;;;;19.20;3.13;;;16.80;96.20;;;;;;5046158;28;20041;-67
2022/10/06 12:33:04;;;;;;;17.67;3.50;;;16.80;96.20;;;;;;5021211;28;20502;-63
2022/10/06 12:35:31;;;;;;;11.45;3.10;;;16.80;96.50;;;;;;5045440;28;20044;-63
2022/10/06 12:38:03;;;;;;;37.08;4.82;;;16.90;96.40;;;;;;5050102;28;20088;-66
2022/10/06 12:40:30;;;;;;;15.20;3.20;;;17.00;96.80;;;;;;5046200;28;20136;-64
2022/10/06 12:42:57;;;;;;;20.15;4.65;;;17.00;96.00;;;;;;5032620;28;20045;-64
2022/10/06 12:45:23;;;;;;;30.25;10.82;;;17.00;96.20;;;;;;5051831;28;20045;-62
2022/10/06 12:47:50;;;;;;;12.40;3.50;;;17.00;96.20;;;;;;5047892;28;20045;-65
2022/10/06 12:50:17;;;;;;;16.10;3.97;;;17.00;95.60;;;;;;5045850;28;20144;-62
2022/10/06 12:52:44;;;;;;;20.00;7.65;;;17.10;95.90;;;;;;5039954;28;20080;-63
2022/10/06 12:55:11;;;;;;;13.25;3.10;;;17.10;96.30;;;;;;5032894;28;20389;-62
2022/10/06 12:57:38;;;;;;;27.17;6.32;;;17.10;95.90;;;;;;5038650;28;20087;-70
2022/10/06 13:00:05;;;;;;;22.55;4.63;;;17.10;95.70;;;;;;5044723;28;20041;-66